Time;durP1;ratioP1;P1;durP2;ratioP2;P2;SDS_P1;SDS_P2;PMS_P1;PMS_P2;Temp;Humidity;BMP_temperature;BMP_pressure;BME280_temperature;BME280_humidity;BME280_pressure;Samples;Min_cycle;Max_cycle;Signal;HPM_P1;HPM_P2
2023/04/08 00:01:23;;;;;;;10.10;9.10;;;;;;;;;;5025254;28;20208;-64
2023/04/08 00:03:50;;;;;;;9.73;8.73;;;;;;;;;;5020466;28;20208;-64
2023/04/08 00:06:17;;;;;;;9.30;8.40;;;;;;;;;;5018561;28;20215;-64
2023/04/08 00:08:44;;;;;;;8.63;7.83;;;;;;;;;;5019995;28;20227;-64
2023/04/08 00:11:11;;;;;;;8.90;8.07;;;;;;;;;;5021988;28;20204;-64
2023/04/08 00:13:38;;;;;;;8.73;7.83;;;;;;;;;;5025549;28;20208;-64
2023/04/08 00:16:06;;;;;;;8.33;7.53;;;;;;;;;;5017069;28;20204;-64
2023/04/08 00:18:36;;;;;;;7.90;7.10;;;;;;;;;;5022978;28;20221;-64
2023/04/08 00:21:04;;;;;;;8.80;7.10;;;;;;;;;;5022128;28;20236;-66
2023/04/08 00:23:31;;;;;;;9.17;8.27;;;;;;;;;;5017278;28;20208;-64
2023/04/08 00:25:58;;;;;;;8.80;7.90;;;;;;;;;;5020643;28;20219;-64
2023/04/08 00:28:25;;;;;;;8.20;7.40;;;;;;;;;;5019783;28;20233;-64
2023/04/08 00:30:53;;;;;;;9.40;7.73;;;;;;;;;;5019319;28;20205;-64
2023/04/08 00:33:20;;;;;;;7.30;6.70;;;;;;;;;;5016717;28;20201;-64
2023/04/08 00:35:49;;;;;;;7.87;7.10;;;;;;;;;;5020538;28;20227;-64
2023/04/08 00:38:16;;;;;;;8.13;7.33;;;;;;;;;;5020271;28;20200;-64
2023/04/08 00:40:44;;;;;;;8.43;7.57;;;;;;;;;;5022058;28;20214;-64
2023/04/08 00:43:11;;;;;;;8.70;7.53;;;;;;;;;;5022590;28;20218;-64
2023/04/08 00:45:38;;;;;;;8.07;7.27;;;;;;;;;;5022889;28;20204;-64
2023/04/08 00:48:05;;;;;;;8.40;7.60;;;;;;;;;;5021656;28;20220;-63
2023/04/08 00:50:32;;;;;;;8.57;7.40;;;;;;;;;;5020319;28;20220;-64
2023/04/08 00:53:01;;;;;;;8.87;7.40;;;;;;;;;;5017058;28;20211;-64
2023/04/08 00:55:28;;;;;;;7.93;7.17;;;;;;;;;;5021329;28;20211;-64
2023/04/08 00:57:56;;;;;;;7.60;6.80;;;;;;;;;;5017804;28;20201;-64
2023/04/08 01:00:23;;;;;;;8.43;7.57;;;;;;;;;;5017514;28;20201;-64
2023/04/08 01:02:56;;;;;;;8.30;7.50;;;;;;;;;;5017675;28;20219;-64
2023/04/08 01:05:29;;;;;;;8.40;7.60;;;;;;;;;;5019866;28;20200;-64
2023/04/08 01:07:56;;;;;;;7.90;7.17;;;;;;;;;;5016742;28;20216;-64
2023/04/08 01:10:27;;;;;;;8.47;7.67;;;;;;;;;;5025596;28;20211;-64
2023/04/08 01:12:56;;;;;;;8.57;7.77;;;;;;;;;;5019660;28;20210;-64
2023/04/08 01:15:24;;;;;;;8.23;7.43;;;;;;;;;;5022433;28;20208;-64
2023/04/08 01:17:53;;;;;;;8.47;7.57;;;;;;;;;;5018540;28;20207;-64
2023/04/08 01:20:20;;;;;;;8.13;7.33;;;;;;;;;;5020514;28;20200;-64
2023/04/08 01:22:56;;;;;;;7.60;6.90;;;;;;;;;;5018897;28;20207;-64
2023/04/08 01:25:26;;;;;;;8.63;7.83;;;;;;;;;;5021891;28;20203;-64
2023/04/08 01:27:56;;;;;;;9.47;8.10;;;;;;;;;;5018855;28;20239;-64
2023/04/08 01:30:25;;;;;;;9.10;8.07;;;;;;;;;;5016921;28;20208;-64
2023/04/08 01:32:53;;;;;;;8.60;7.37;;;;;;;;;;5022258;28;20204;-64
2023/04/08 01:35:20;;;;;;;9.63;7.73;;;;;;;;;;5017449;28;20200;-64
2023/04/08 01:37:47;;;;;;;9.57;8.43;;;;;;;;;;5017480;28;20200;-64
2023/04/08 01:40:14;;;;;;;10.83;9.30;;;;;;;;;;5016808;28;20204;-64
2023/04/08 01:42:42;;;;;;;10.90;9.80;;;;;;;;;;5018560;28;20235;-64
2023/04/08 01:45:11;;;;;;;9.73;8.73;;;;;;;;;;5014691;28;20208;-64
2023/04/08 01:47:39;;;;;;;10.00;8.80;;;;;;;;;;5016859;28;20228;-64
2023/04/08 01:50:07;;;;;;;9.17;8.37;;;;;;;;;;5013325;28;20339;-64
2023/04/08 01:52:35;;;;;;;9.37;8.43;;;;;;;;;;5014781;28;20204;-64
2023/04/08 01:55:02;;;;;;;9.90;8.50;;;;;;;;;;5022256;28;20204;-64
2023/04/08 01:57:32;;;;;;;9.23;8.27;;;;;;;;;;5017296;28;20208;-64
2023/04/08 02:00:01;;;;;;;9.07;8.17;;;;;;;;;;5012080;28;20220;-64
2023/04/08 02:02:30;;;;;;;9.43;8.40;;;;;;;;;;5016938;28;20216;-64
2023/04/08 02:04:58;;;;;;;10.30;8.53;;;;;;;;;;5017125;28;20204;-64
2023/04/08 02:07:26;;;;;;;11.13;9.03;;;;;;;;;;5017182;28;20228;-64
2023/04/08 02:09:53;;;;;;;12.07;10.70;;;;;;;;;;5018992;28;20204;-64
2023/04/08 02:12:20;;;;;;;10.83;9.73;;;;;;;;;;5023005;28;20200;-64
2023/04/08 02:14:47;;;;;;;13.47;10.50;;;;;;;;;;5020951;28;20210;-64
2023/04/08 02:17:16;;;;;;;11.40;10.30;;;;;;;;;;5014712;28;20205;-64
2023/04/08 02:19:48;;;;;;;12.47;10.37;;;;;;;;;;5018322;28;20204;-64
2023/04/08 02:22:18;;;;;;;11.53;10.30;;;;;;;;;;5020710;28;20223;-64
2023/04/08 02:24:46;;;;;;;11.40;10.20;;;;;;;;;;5021005;28;20223;-64
2023/04/08 02:27:13;;;;;;;11.70;10.13;;;;;;;;;;5020477;28;20207;-64
2023/04/08 02:29:41;;;;;;;11.00;9.90;;;;;;;;;;5015253;28;20208;-64
2023/04/08 02:32:11;;;;;;;11.00;9.93;;;;;;;;;;5015678;28;20196;-64
2023/04/08 02:34:40;;;;;;;12.53;11.23;;;;;;;;;;5019214;28;20208;-64
2023/04/08 02:37:09;;;;;;;14.07;12.17;;;;;;;;;;5017258;28;20200;-64
2023/04/08 02:39:36;;;;;;;14.07;11.30;;;;;;;;;;5021101;28;20259;-64
2023/04/08 02:42:04;;;;;;;13.80;12.03;;;;;;;;;;5015915;28;20216;-64
2023/04/08 02:44:32;;;;;;;14.07;11.47;;;;;;;;;;5018419;28;20205;-64
2023/04/08 02:46:59;;;;;;;17.40;12.10;;;;;;;;;;5018510;28;20212;-64
2023/04/08 02:49:26;;;;;;;16.17;12.60;;;;;;;;;;5016713;28;20228;-64
2023/04/08 02:51:53;;;;;;;13.97;12.13;;;;;;;;;;5014159;28;20207;-63
2023/04/08 02:54:21;;;;;;;12.50;10.47;;;;;;;;;;5014683;28;20288;-64
2023/04/08 02:56:48;;;;;;;15.47;12.50;;;;;;;;;;5020925;28;20201;-63
2023/04/08 02:59:15;;;;;;;14.80;11.20;;;;;;;;;;5024080;28;20196;-64
2023/04/08 03:01:43;;;;;;;15.07;11.57;;;;;;;;;;5028578;28;20200;-64
2023/04/08 03:04:10;;;;;;;15.63;11.90;;;;;;;;;;5028074;28;20207;-64
2023/04/08 03:06:37;;;;;;;15.87;12.23;;;;;;;;;;5021911;28;20201;-64
2023/04/08 03:09:05;;;;;;;16.63;11.17;;;;;;;;;;5022646;28;20239;-64
2023/04/08 03:11:34;;;;;;;13.23;10.77;;;;;;;;;;5018495;28;20229;-64
2023/04/08 03:14:01;;;;;;;14.70;12.67;;;;;;;;;;5025508;28;20233;-64
2023/04/08 03:16:28;;;;;;;16.17;11.90;;;;;;;;;;5023006;28;20212;-64
2023/04/08 03:18:55;;;;;;;14.33;11.37;;;;;;;;;;5024845;28;20211;-64
2023/04/08 03:21:23;;;;;;;14.53;11.00;;;;;;;;;;5019206;28;20201;-64
2023/04/08 03:23:50;;;;;;;12.97;11.17;;;;;;;;;;5018297;28;20207;-64
2023/04/08 03:26:17;;;;;;;12.10;10.60;;;;;;;;;;5016322;28;20208;-64
2023/04/08 03:28:46;;;;;;;13.30;11.17;;;;;;;;;;5024069;28;20239;-64
2023/04/08 03:31:13;;;;;;;13.50;11.03;;;;;;;;;;5015948;28;20209;-64
2023/04/08 03:33:40;;;;;;;12.17;10.30;;;;;;;;;;5024416;28;20215;-65
2023/04/08 03:36:08;;;;;;;13.27;11.17;;;;;;;;;;5019875;28;20204;-64
2023/04/08 03:38:35;;;;;;;13.03;10.80;;;;;;;;;;5014380;28;20196;-64
2023/04/08 03:41:02;;;;;;;12.40;10.40;;;;;;;;;;5015212;28;20211;-64
2023/04/08 03:43:30;;;;;;;12.73;10.93;;;;;;;;;;5017529;28;20197;-64
2023/04/08 03:45:58;;;;;;;14.67;10.93;;;;;;;;;;5016192;28;20193;-64
2023/04/08 03:48:25;;;;;;;14.73;11.10;;;;;;;;;;5015969;28;20228;-64
2023/04/08 03:50:52;;;;;;;13.20;10.77;;;;;;;;;;5017378;28;20211;-64
2023/04/08 03:53:20;;;;;;;14.97;11.60;;;;;;;;;;5014754;28;20207;-64
2023/04/08 03:55:49;;;;;;;16.90;12.37;;;;;;;;;;5015471;28;20262;-64
2023/04/08 03:58:17;;;;;;;12.50;10.93;;;;;;;;;;5017482;28;20197;-64
2023/04/08 04:00:44;;;;;;;13.23;11.60;;;;;;;;;;5016355;28;20201;-64
2023/04/08 04:03:12;;;;;;;13.20;11.47;;;;;;;;;;5019178;28;20208;-64
2023/04/08 04:05:39;;;;;;;14.20;11.23;;;;;;;;;;5016914;28;20204;-64
2023/04/08 04:08:08;;;;;;;12.47;11.17;;;;;;;;;;5014582;28;20223;-64
2023/04/08 04:10:35;;;;;;;13.60;11.33;;;;;;;;;;5018626;28;20216;-64
2023/04/08 04:13:02;;;;;;;13.43;11.10;;;;;;;;;;5015350;28;20204;-64
2023/04/08 04:15:29;;;;;;;11.13;10.03;;;;;;;;;;5012357;28;20227;-64
2023/04/08 04:17:56;;;;;;;13.67;11.10;;;;;;;;;;5021668;28;20200;-64
2023/04/08 04:20:28;;;;;;;13.47;11.13;;;;;;;;;;5016838;28;20203;-64
2023/04/08 04:22:55;;;;;;;14.00;11.20;;;;;;;;;;5019193;28;20242;-65
2023/04/08 04:25:22;;;;;;;15.00;11.17;;;;;;;;;;5018224;28;20204;-64
2023/04/08 04:27:49;;;;;;;13.77;10.97;;;;;;;;;;5019688;28;20224;-64
2023/04/08 04:30:18;;;;;;;14.93;11.53;;;;;;;;;;5016009;28;20200;-64
2023/04/08 04:32:45;;;;;;;14.37;12.20;;;;;;;;;;5018473;28;20299;-64
2023/04/08 04:35:13;;;;;;;13.93;11.27;;;;;;;;;;5019505;28;20258;-64
2023/04/08 04:37:41;;;;;;;14.77;12.43;;;;;;;;;;5014754;28;20213;-64
2023/04/08 04:40:09;;;;;;;14.33;12.57;;;;;;;;;;5016288;28;20208;-65
2023/04/08 04:42:36;;;;;;;15.77;12.40;;;;;;;;;;5011748;28;20212;-64
2023/04/08 04:45:03;;;;;;;12.83;11.50;;;;;;;;;;5015361;28;20208;-64
2023/04/08 04:47:31;;;;;;;13.40;11.90;;;;;;;;;;5018594;28;20208;-64
2023/04/08 04:49:58;;;;;;;14.73;11.77;;;;;;;;;;5019828;28;20234;-64
2023/04/08 04:52:25;;;;;;;13.73;12.07;;;;;;;;;;5019864;28;20220;-64
2023/04/08 04:54:54;;;;;;;14.07;12.00;;;;;;;;;;5020287;28;20209;-64
2023/04/08 04:57:21;;;;;;;12.87;11.40;;;;;;;;;;5020222;28;20212;-64
2023/04/08 04:59:48;;;;;;;14.50;11.37;;;;;;;;;;5020524;28;20200;-64
2023/04/08 05:02:15;;;;;;;16.17;11.87;;;;;;;;;;5019757;28;20208;-64
2023/04/08 05:04:42;;;;;;;14.33;11.60;;;;;;;;;;5021584;28;20223;-64
2023/04/08 05:07:09;;;;;;;13.53;10.67;;;;;;;;;;5023632;28;20203;-64
2023/04/08 05:09:36;;;;;;;12.60;10.10;;;;;;;;;;5027175;28;20223;-64
2023/04/08 05:12:05;;;;;;;14.23;11.40;;;;;;;;;;5023418;28;20212;-64
2023/04/08 05:14:33;;;;;;;13.97;11.77;;;;;;;;;;5019110;28;20197;-64
2023/04/08 05:17:00;;;;;;;17.40;13.70;;;;;;;;;;5020341;28;20204;-64
2023/04/08 05:19:27;;;;;;;15.43;12.87;;;;;;;;;;5022212;28;20211;-64
2023/04/08 05:21:54;;;;;;;14.67;12.67;;;;;;;;;;5017137;28;20196;-64
2023/04/08 05:24:21;;;;;;;15.97;12.83;;;;;;;;;;5025326;28;20204;-64
2023/04/08 05:26:51;;;;;;;15.20;12.57;;;;;;;;;;5024274;28;20197;-64
2023/04/08 05:29:20;;;;;;;16.97;13.83;;;;;;;;;;5020925;28;20242;-64
2023/04/08 05:31:48;;;;;;;17.00;13.93;;;;;;;;;;5018689;28;20208;-64
2023/04/08 05:34:18;;;;;;;16.47;14.10;;;;;;;;;;5025630;28;20208;-64
2023/04/08 05:36:45;;;;;;;15.93;13.63;;;;;;;;;;5020178;28;20200;-64
2023/04/08 05:39:12;;;;;;;18.10;14.97;;;;;;;;;;5017890;28;20201;-64
2023/04/08 05:41:39;;;;;;;14.87;13.30;;;;;;;;;;5023399;28;20208;-64
2023/04/08 05:44:06;;;;;;;19.03;14.27;;;;;;;;;;5019766;28;20204;-64
2023/04/08 05:46:35;;;;;;;15.07;13.30;;;;;;;;;;5016587;28;20216;-64
2023/04/08 05:49:02;;;;;;;17.30;14.30;;;;;;;;;;5021021;28;20220;-64
2023/04/08 05:51:29;;;;;;;17.40;14.13;;;;;;;;;;5014825;28;20209;-64
2023/04/08 05:53:56;;;;;;;16.00;13.37;;;;;;;;;;5017158;28;20208;-64
2023/04/08 05:56:23;;;;;;;14.77;12.90;;;;;;;;;;5016676;28;20212;-64
2023/04/08 05:58:50;;;;;;;15.70;14.00;;;;;;;;;;5020631;28;20200;-64
2023/04/08 06:01:17;;;;;;;18.40;13.93;;;;;;;;;;5016837;28;20193;-64
2023/04/08 06:03:46;;;;;;;15.17;13.13;;;;;;;;;;5023465;28;20268;-64
2023/04/08 06:06:13;;;;;;;16.67;14.07;;;;;;;;;;5017219;28;20207;-64
2023/04/08 06:08:40;;;;;;;15.77;13.20;;;;;;;;;;5018043;28;20220;-64
2023/04/08 06:11:08;;;;;;;17.63;14.60;;;;;;;;;;5016454;28;20197;-64
2023/04/08 06:13:36;;;;;;;17.17;15.03;;;;;;;;;;5020381;28;20204;-64
2023/04/08 06:16:10;;;;;;;20.20;15.10;;;;;;;;;;5022202;28;20204;-63
2023/04/08 06:18:37;;;;;;;19.70;16.47;;;;;;;;;;5024918;28;20204;-64
2023/04/08 06:21:06;;;;;;;23.57;16.80;;;;;;;;;;5023166;28;20207;-64
2023/04/08 06:23:33;;;;;;;21.57;16.57;;;;;;;;;;5025398;28;20201;-64
2023/04/08 06:26:00;;;;;;;20.10;16.10;;;;;;;;;;5021014;28;20199;-64
2023/04/08 06:28:29;;;;;;;21.73;16.27;;;;;;;;;;5017622;28;20227;-63
2023/04/08 06:30:56;;;;;;;20.37;15.83;;;;;;;;;;5015077;28;20254;-64
2023/04/08 06:33:24;;;;;;;21.33;16.27;;;;;;;;;;5022040;28;20287;-64
2023/04/08 06:35:52;;;;;;;18.17;14.50;;;;;;;;;;5026833;28;20200;-64
2023/04/08 06:38:20;;;;;;;20.57;16.50;;;;;;;;;;5017984;28;20258;-63
2023/04/08 06:40:47;;;;;;;19.30;14.77;;;;;;;;;;5022826;28;20204;-63
2023/04/08 06:43:14;;;;;;;21.33;15.33;;;;;;;;;;5025352;28;20207;-63
2023/04/08 06:45:42;;;;;;;20.90;16.10;;;;;;;;;;5023824;28;20268;-63
2023/04/08 06:48:09;;;;;;;17.83;15.17;;;;;;;;;;5027127;28;20219;-63
2023/04/08 06:50:36;;;;;;;21.37;15.80;;;;;;;;;;5022147;28;20224;-63
2023/04/08 06:53:03;;;;;;;18.23;15.10;;;;;;;;;;5027940;28;20205;-63
2023/04/08 06:55:31;;;;;;;22.33;16.90;;;;;;;;;;5021567;28;20204;-63
2023/04/08 06:58:00;;;;;;;18.93;16.03;;;;;;;;;;5017847;28;20201;-63
2023/04/08 07:00:27;;;;;;;22.27;16.57;;;;;;;;;;5023440;28;20212;-63
2023/04/08 07:02:55;;;;;;;18.87;15.27;;;;;;;;;;5027501;28;20200;-63
2023/04/08 07:05:22;;;;;;;21.23;17.20;;;;;;;;;;5025676;28;20200;-65
2023/04/08 07:07:49;;;;;;;22.67;17.17;;;;;;;;;;5020486;28;20215;-63
2023/04/08 07:10:16;;;;;;;20.23;16.47;;;;;;;;;;5024590;28;20224;-63
2023/04/08 07:12:44;;;;;;;21.97;15.93;;;;;;;;;;5019303;28;20204;-63
2023/04/08 07:15:12;;;;;;;24.50;17.23;;;;;;;;;;5019924;28;20201;-63
2023/04/08 07:17:39;;;;;;;18.80;15.93;;;;;;;;;;5017820;28;20197;-63
2023/04/08 07:20:07;;;;;;;21.63;15.37;;;;;;;;;;5019774;28;20212;-63
2023/04/08 07:22:34;;;;;;;22.40;16.33;;;;;;;;;;5019776;28;20216;-63
2023/04/08 07:25:01;;;;;;;19.27;15.83;;;;;;;;;;5019329;28;20208;-63
2023/04/08 07:27:28;;;;;;;21.47;15.07;;;;;;;;;;5017319;28;20220;-63
2023/04/08 07:29:57;;;;;;;18.97;15.47;;;;;;;;;;5019576;28;20224;-63
2023/04/08 07:32:24;;;;;;;16.43;13.47;;;;;;;;;;5021182;28;20207;-63
2023/04/08 07:34:51;;;;;;;15.80;13.97;;;;;;;;;;5020387;28;20204;-62
2023/04/08 07:37:18;;;;;;;14.77;13.07;;;;;;;;;;5025832;28;20216;-63
2023/04/08 07:39:45;;;;;;;17.33;13.43;;;;;;;;;;5019651;28;20209;-63
2023/04/08 07:42:12;;;;;;;14.13;12.07;;;;;;;;;;5021873;28;20200;-63
2023/04/08 07:44:40;;;;;;;13.87;12.07;;;;;;;;;;5023832;28;20208;-63
2023/04/08 07:47:10;;;;;;;15.63;12.27;;;;;;;;;;5021455;28;20219;-62
2023/04/08 07:49:37;;;;;;;15.47;12.93;;;;;;;;;;5016238;28;20235;-62
2023/04/08 07:52:07;;;;;;;14.10;11.83;;;;;;;;;;5022340;28;20219;-62
2023/04/08 07:54:34;;;;;;;15.47;12.90;;;;;;;;;;5017400;28;20248;-63
2023/04/08 07:57:02;;;;;;;14.60;13.03;;;;;;;;;;5021112;28;20208;-63
2023/04/08 07:59:29;;;;;;;15.40;12.47;;;;;;;;;;5019362;28;20216;-63
2023/04/08 08:01:56;;;;;;;15.03;12.47;;;;;;;;;;5021946;28;20466;-62
2023/04/08 08:04:25;;;;;;;14.07;11.90;;;;;;;;;;5012725;28;20211;-63
2023/04/08 08:06:52;;;;;;;13.40;11.03;;;;;;;;;;5017791;28;20209;-63
2023/04/08 08:09:19;;;;;;;13.20;11.00;;;;;;;;;;5024919;28;20224;-62
2023/04/08 08:11:46;;;;;;;14.10;11.40;;;;;;;;;;5028730;28;20215;-63
2023/04/08 08:14:15;;;;;;;12.70;11.33;;;;;;;;;;5025026;28;20288;-62
2023/04/08 08:16:43;;;;;;;12.17;10.30;;;;;;;;;;5024354;28;20201;-62
2023/04/08 08:19:12;;;;;;;11.80;10.60;;;;;;;;;;5024949;28;20204;-62
2023/04/08 08:21:41;;;;;;;11.43;9.87;;;;;;;;;;5022647;28;20208;-62
2023/04/08 08:24:08;;;;;;;11.87;10.33;;;;;;;;;;5020806;28;20196;-62
2023/04/08 08:26:36;;;;;;;12.50;10.80;;;;;;;;;;5015411;28;20208;-62
2023/04/08 08:29:03;;;;;;;12.17;10.87;;;;;;;;;;5021141;28;20235;-63
2023/04/08 08:31:30;;;;;;;13.57;10.43;;;;;;;;;;5017662;28;20205;-72
2023/04/08 08:33:58;;;;;;;12.43;10.57;;;;;;;;;;5019133;28;20228;-71
2023/04/08 08:36:26;;;;;;;12.43;9.67;;;;;;;;;;5019506;28;20208;-71
2023/04/08 08:38:54;;;;;;;13.53;10.10;;;;;;;;;;5018648;28;20208;-72
2023/04/08 08:41:22;;;;;;;10.33;9.30;;;;;;;;;;5025773;28;20208;-71
2023/04/08 08:43:49;;;;;;;11.90;9.93;;;;;;;;;;5024574;28;20215;-73
2023/04/08 08:46:16;;;;;;;12.80;9.67;;;;;;;;;;5017142;28;20231;-72
2023/04/08 08:48:44;;;;;;;11.00;9.50;;;;;;;;;;5019841;28;20278;-72
2023/04/08 08:51:11;;;;;;;10.67;9.03;;;;;;;;;;5021431;28;20233;-71
2023/04/08 08:53:43;;;;;;;10.17;8.77;;;;;;;;;;5024377;28;20207;-71
2023/04/08 08:56:12;;;;;;;9.93;8.93;;;;;;;;;;5022125;28;20200;-71
2023/04/08 08:58:39;;;;;;;11.43;8.93;;;;;;;;;;5020298;28;20215;-72
2023/04/08 09:01:21;;;;;;;9.37;8.23;;;;;;;;;;5021770;28;20204;-71
2023/04/08 09:03:49;;;;;;;9.30;8.40;;;;;;;;;;5018003;28;20212;-71
2023/04/08 09:06:18;;;;;;;10.37;8.03;;;;;;;;;;5021068;28;20212;-71
2023/04/08 09:08:45;;;;;;;9.90;8.90;;;;;;;;;;5021343;28;20204;-71
2023/04/08 09:11:15;;;;;;;9.30;8.37;;;;;;;;;;5022774;28;20235;-71
2023/04/08 09:13:42;;;;;;;11.70;8.80;;;;;;;;;;5018437;28;20208;-71
2023/04/08 09:16:10;;;;;;;10.37;8.50;;;;;;;;;;5021069;28;20208;-71
2023/04/08 09:18:37;;;;;;;9.10;8.23;;;;;;;;;;5022470;28;20204;-70
2023/04/08 09:21:05;;;;;;;9.47;7.83;;;;;;;;;;5019227;28;20208;-71
2023/04/08 09:23:42;;;;;;;9.87;8.80;;;;;;;;;;5018297;28;20208;-71
2023/04/08 09:26:10;;;;;;;10.17;8.80;;;;;;;;;;5019180;28;20218;-71
2023/04/08 09:28:38;;;;;;;10.90;8.70;;;;;;;;;;5024067;28;20330;-72
2023/04/08 09:31:20;;;;;;;8.73;7.90;;;;;;;;;;5018470;28;20229;-71
2023/04/08 09:33:48;;;;;;;8.80;7.90;;;;;;;;;;5019022;28;20200;-71
2023/04/08 09:36:15;;;;;;;8.93;8.13;;;;;;;;;;5021683;28;20212;-71
2023/04/08 09:38:43;;;;;;;9.43;8.53;;;;;;;;;;5023066;28;20200;-71
2023/04/08 09:41:13;;;;;;;9.70;8.70;;;;;;;;;;5021749;28;20200;-71
2023/04/08 09:43:47;;;;;;;9.47;8.57;;;;;;;;;;5022647;28;20262;-71
2023/04/08 09:46:15;;;;;;;9.27;8.30;;;;;;;;;;5016760;28;20232;-71
2023/04/08 09:48:46;;;;;;;10.10;8.70;;;;;;;;;;5019033;28;20299;-71
2023/04/08 09:51:14;;;;;;;9.87;8.87;;;;;;;;;;5017866;28;20227;-71
2023/04/08 09:53:46;;;;;;;9.33;8.43;;;;;;;;;;5018373;28;20205;-71
2023/04/08 09:56:15;;;;;;;9.70;8.70;;;;;;;;;;5013836;28;20241;-72
2023/04/08 09:58:46;;;;;;;9.73;8.73;;;;;;;;;;5015109;28;20261;-71
2023/04/08 10:01:15;;;;;;;9.43;8.50;;;;;;;;;;5018338;28;20201;-71
2023/04/08 10:03:47;;;;;;;9.60;8.43;;;;;;;;;;5017747;28;20205;-71
2023/04/08 10:06:18;;;;;;;9.00;8.20;;;;;;;;;;5018775;28;20204;-70
2023/04/08 10:08:52;;;;;;;9.90;8.90;;;;;;;;;;5021127;28;20223;-70
2023/04/08 10:11:19;;;;;;;9.93;8.93;;;;;;;;;;5019496;28;20330;-71
2023/04/08 10:13:48;;;;;;;10.80;8.90;;;;;;;;;;5020592;28;20200;-71
2023/04/08 10:16:23;;;;;;;9.50;8.55;;;;;;;;;;5020568;28;20209;-71
2023/04/08 10:18:54;;;;;;;9.53;8.63;;;;;;;;;;5014790;28;20212;-70
2023/04/08 10:21:34;;;;;;;9.45;8.45;;;;;;;;;;5016494;28;20205;-70
2023/04/08 10:24:05;;;;;;;27.90;11.02;;;;;;;;;;5015908;28;20234;-70
2023/04/08 10:26:35;;;;;;;9.73;8.80;;;;;;;;;;5018991;28;20200;-70
2023/04/08 10:29:21;;;;;;;9.93;8.93;;;;;;;;;;5016996;28;20236;-70
2023/04/08 10:31:50;;;;;;;9.32;8.30;;;;;;;;;;5017496;28;20237;-70
2023/04/08 10:34:17;;;;;;;9.38;8.43;;;;;;;;;;5018371;28;20212;-69
2023/04/08 10:36:44;;;;;;;9.00;8.20;;;;;;;;;;5017009;28;20207;-69
2023/04/08 10:39:12;;;;;;;8.48;7.57;;;;;;;;;;5015786;28;20200;-69
2023/04/08 10:41:42;;;;;;;8.73;7.93;;;;;;;;;;5016886;28;20201;-61
2023/04/08 10:44:16;;;;;;;9.02;8.13;;;;;;;;;;5016475;28;20200;-61
2023/04/08 10:46:43;;;;;;;9.10;8.20;;;;;;;;;;5020805;28;20201;-61
2023/04/08 10:49:11;;;;;;;8.50;7.70;;;;;;;;;;5021781;28;20215;-61
2023/04/08 10:51:39;;;;;;;9.20;8.30;;;;;;;;;;5020961;28;20220;-61
2023/04/08 10:54:07;;;;;;;7.90;7.22;;;;;;;;;;5016538;28;20208;-61
2023/04/08 10:56:34;;;;;;;8.50;7.80;;;;;;;;;;5017302;28;20263;-61
2023/04/08 10:59:02;;;;;;;9.18;8.20;;;;;;;;;;5020063;28;20285;-61
2023/04/08 11:01:38;;;;;;;8.80;7.90;;;;;;;;;;5024488;28;20200;-61
2023/04/08 11:04:07;;;;;;;8.70;7.85;;;;;;;;;;5019719;28;20229;-61
2023/04/08 11:06:38;;;;;;;9.05;8.10;;;;;;;;;;5017433;28;20215;-61
2023/04/08 11:09:05;;;;;;;8.13;7.43;;;;;;;;;;5021772;28;20215;-61
2023/04/08 11:11:32;;;;;;;7.68;6.95;;;;;;;;;;5023967;28;20236;-60
2023/04/08 11:14:00;;;;;;;9.02;7.90;;;;;;;;;;5019016;28;20208;-60
2023/04/08 11:16:27;;;;;;;7.80;7.03;;;;;;;;;;5020102;28;20238;-60
2023/04/08 11:18:55;;;;;;;7.60;7.00;;;;;;;;;;5023826;28;20231;-60
2023/04/08 11:21:27;;;;;;;7.47;6.88;;;;;;;;;;5016518;28;20224;-61
2023/04/08 11:23:56;;;;;;;6.80;6.30;;;;;;;;;;5014130;28;20247;-61
2023/04/08 11:26:23;;;;;;;7.05;6.35;;;;;;;;;;5019313;28;20208;-60
2023/04/08 11:28:51;;;;;;;7.15;6.55;;;;;;;;;;5023613;28;20223;-60
2023/04/08 11:31:19;;;;;;;7.90;7.10;;;;;;;;;;5020493;28;20260;-61
2023/04/08 11:33:47;;;;;;;8.77;7.60;;;;;;;;;;5020325;28;20210;-61
2023/04/08 11:36:14;;;;;;;7.50;6.80;;;;;;;;;;5020538;28;20208;-61
2023/04/08 11:38:41;;;;;;;7.90;7.10;;;;;;;;;;5022233;28;20211;-60
2023/04/08 11:41:10;;;;;;;8.65;6.95;;;;;;;;;;5018809;28;20200;-61
2023/04/08 11:43:39;;;;;;;6.72;6.22;;;;;;;;;;5022612;28;20212;-60
2023/04/08 11:46:11;;;;;;;6.90;6.30;;;;;;;;;;5021186;28;20276;-60
2023/04/08 11:48:38;;;;;;;6.65;6.15;;;;;;;;;;5018777;28;20272;-60
2023/04/08 11:51:07;;;;;;;7.50;6.80;;;;;;;;;;5022920;28;20224;-60
2023/04/08 11:53:35;;;;;;;7.55;6.88;;;;;;;;;;5022508;28;20299;-60
2023/04/08 11:56:17;;;;;;;7.07;6.47;;;;;;;;;;5018105;28;20212;-60
2023/04/08 11:58:44;;;;;;;7.40;6.68;;;;;;;;;;5018755;28;20208;-60
2023/04/08 12:01:11;;;;;;;7.78;6.97;;;;;;;;;;5021244;28;20205;-60
2023/04/08 12:03:39;;;;;;;8.32;6.78;;;;;;;;;;5019961;28;20204;-60
2023/04/08 12:06:07;;;;;;;7.72;7.00;;;;;;;;;;5017338;28;20204;-61
2023/04/08 12:08:34;;;;;;;7.85;7.07;;;;;;;;;;5017983;28;20200;-60
2023/04/08 12:11:01;;;;;;;8.45;7.32;;;;;;;;;;5019418;28;20239;-61
2023/04/08 12:13:30;;;;;;;8.48;7.55;;;;;;;;;;5019723;28;20242;-60
2023/04/08 12:15:57;;;;;;;8.57;7.45;;;;;;;;;;5021374;28;20214;-61
2023/04/08 12:18:24;;;;;;;7.85;7.15;;;;;;;;;;5018675;28;20204;-61
2023/04/08 12:20:51;;;;;;;7.60;6.90;;;;;;;;;;5019446;28;20201;-61
2023/04/08 12:23:18;;;;;;;8.95;8.15;;;;;;;;;;5017648;28;20216;-62
2023/04/08 12:25:46;;;;;;;7.78;7.07;;;;;;;;;;5019286;28;20228;-61
2023/04/08 12:28:13;;;;;;;8.13;7.38;;;;;;;;;;5017637;28;20239;-61
2023/04/08 12:30:41;;;;;;;7.38;6.75;;;;;;;;;;5019281;28;20208;-60
2023/04/08 12:33:08;;;;;;;7.85;7.15;;;;;;;;;;5019835;28;20208;-60
2023/04/08 12:35:35;;;;;;;8.02;7.32;;;;;;;;;;5018018;28;20196;-61
2023/04/08 12:38:03;;;;;;;10.45;9.45;;;;;;;;;;5018929;28;20219;-60
2023/04/08 12:40:30;;;;;;;10.07;9.07;;;;;;;;;;5019029;28;20255;-61
2023/04/08 12:42:57;;;;;;;36.15;29.63;;;;;;;;;;5019615;28;20260;-60
2023/04/08 12:45:24;;;;;;;12.95;11.10;;;;;;;;;;5018699;28;20216;-60
2023/04/08 12:47:53;;;;;;;9.65;8.63;;;;;;;;;;5021326;28;20211;-60
2023/04/08 12:50:20;;;;;;;9.63;8.70;;;;;;;;;;5020241;28;20206;-61
2023/04/08 12:52:47;;;;;;;8.35;7.57;;;;;;;;;;5021610;28;20227;-60
2023/04/08 12:55:15;;;;;;;8.90;8.10;;;;;;;;;;5020226;28;20209;-61
2023/04/08 12:57:42;;;;;;;10.48;9.48;;;;;;;;;;5014760;28;20205;-60
2023/04/08 13:00:10;;;;;;;11.23;10.13;;;;;;;;;;5012890;28;20201;-61
2023/04/08 13:02:37;;;;;;;11.93;10.85;;;;;;;;;;5018246;28;20204;-61
2023/04/08 13:05:06;;;;;;;11.48;10.35;;;;;;;;;;5020751;28;20212;-60
2023/04/08 13:07:33;;;;;;;12.82;11.52;;;;;;;;;;5019706;28;20204;-61
2023/04/08 13:10:00;;;;;;;13.30;11.90;;;;;;;;;;5016406;28;20196;-61
2023/04/08 13:12:28;;;;;;;12.88;11.75;;;;;;;;;;5022794;28;20239;-61
2023/04/08 13:14:55;;;;;;;13.23;11.93;;;;;;;;;;5020440;28;20205;-61
2023/04/08 13:17:22;;;;;;;12.20;11.05;;;;;;;;;;5022205;28;20204;-61
2023/04/08 13:19:50;;;;;;;13.05;11.85;;;;;;;;;;5022738;28;20210;-61
2023/04/08 13:22:18;;;;;;;10.93;9.82;;;;;;;;;;5022616;28;20207;-61
2023/04/08 13:24:45;;;;;;;10.70;9.70;;;;;;;;;;5020240;28;20231;-61
2023/04/08 13:27:12;;;;;;;12.45;10.23;;;;;;;;;;5018145;28;20211;-61
2023/04/08 13:29:40;;;;;;;11.00;9.38;;;;;;;;;;5018244;28;20200;-60
2023/04/08 13:32:07;;;;;;;11.88;10.68;;;;;;;;;;5017759;28;20356;-61
2023/04/08 13:34:34;;;;;;;10.93;9.93;;;;;;;;;;5020704;28;20209;-61
2023/04/08 13:37:02;;;;;;;10.13;9.07;;;;;;;;;;5024016;28;20215;-61
2023/04/08 13:39:30;;;;;;;11.25;10.15;;;;;;;;;;5017814;28;20209;-61
2023/04/08 13:41:57;;;;;;;10.35;9.35;;;;;;;;;;5021752;28;20215;-61
2023/04/08 13:44:24;;;;;;;11.38;10.25;;;;;;;;;;5021343;28;20201;-60
2023/04/08 13:46:51;;;;;;;11.55;10.35;;;;;;;;;;5016686;28;20205;-61
2023/04/08 13:49:19;;;;;;;10.57;9.48;;;;;;;;;;5019755;28;20212;-61
2023/04/08 13:51:46;;;;;;;11.40;10.30;;;;;;;;;;5015889;28;20217;-61
2023/04/08 13:54:13;;;;;;;12.55;11.32;;;;;;;;;;5020260;28;20205;-61
2023/04/08 13:56:41;;;;;;;12.40;11.20;;;;;;;;;;5025197;28;20218;-61
2023/04/08 13:59:09;;;;;;;11.13;9.63;;;;;;;;;;5021944;28;20206;-61
2023/04/08 14:01:36;;;;;;;11.75;10.55;;;;;;;;;;5022081;28;20217;-60
2023/04/08 14:04:04;;;;;;;11.77;10.50;;;;;;;;;;5023282;28;20204;-60
2023/04/08 14:06:31;;;;;;;10.73;8.40;;;;;;;;;;5023509;28;20208;-60
2023/04/08 14:08:58;;;;;;;10.32;8.82;;;;;;;;;;5016930;28;20200;-60
2023/04/08 14:11:25;;;;;;;10.95;8.85;;;;;;;;;;5009093;28;20242;-60
2023/04/08 14:13:53;;;;;;;10.75;9.50;;;;;;;;;;5019416;28;20200;-63
2023/04/08 14:16:21;;;;;;;8.95;8.05;;;;;;;;;;5024876;28;20208;-61
2023/04/08 14:18:48;;;;;;;8.52;7.57;;;;;;;;;;5023720;28;20208;-61
2023/04/08 14:21:16;;;;;;;9.90;9.00;;;;;;;;;;5021878;28;20209;-61
2023/04/08 14:23:44;;;;;;;10.55;8.98;;;;;;;;;;5019832;28;20208;-60
2023/04/08 14:26:11;;;;;;;14.52;12.93;;;;;;;;;;5017512;28;20211;-62
2023/04/08 14:28:38;;;;;;;9.80;8.82;;;;;;;;;;5019289;28;20240;-61
2023/04/08 14:31:07;;;;;;;9.18;8.25;;;;;;;;;;5016428;28;20208;-61
2023/04/08 14:33:34;;;;;;;8.35;7.55;;;;;;;;;;5015810;28;20196;-61